Terminal Aerodrome Forecast
Issued by NWS Lake Charles, LA

Home | Current Version | Previous Version | Text Only | Print | Product List | Glossary On
Versions: 1 2 3 4 5 6 7 8 9 10 11 12 13 14 15 16 17 18
000
FTUS44 KLCH 010520
TAFBPT
TAF
KBPT 010520Z 0106/0206 VRB03KT P6SM SCT015 SCT250
      TEMPO 0109/0113 4SM BR
     FM011500 20008KT P6SM VCSH SCT025
     FM011800 19011KT P6SM VCTS SCT035CB SCT250
     FM020200 20004KT P6SM SCT250=

USA.gov is the U.S. government's official web portal to all federal, state and local government web resources and services.